Time,TemperatureF,DewpointF,PressureIn,WindDirection,WindDirectionDegrees,WindSpeedMPH,WindSpeedGustMPH,Humidity,HourlyPrecipIn,Conditions,Clouds,dailyrainin,SolarRadiationWatts/m^2,SoftwareType,DateUTC
2013-05-18 00:02:00,76.2,69.6,30.12,SSE,156,5.0,6.0,80,0.00,,,0.00,0,Wunderground v.1.15,2013-05-18 04:02:00,
2013-05-18 00:04:00,76.2,69.6,30.12,SE,142,5.0,6.0,80,0.00,,,0.00,0,Wunderground v.1.15,2013-05-18 04:04:00,
2013-05-18 00:08:00,76.2,69.9,30.12,SE,125,5.0,6.0,81,0.00,,,0.00,0,Wunderground v.1.15,2013-05-18 04:08:00,
2013-05-18 00:12:00,76.1,69.8,30.12,ESE,116,5.0,5.0,81,0.00,,,0.00,0,Wunderground v.1.15,2013-05-18 04:12:00,
2013-05-18 00:18:00,76.1,69.8,30.12,ESE,108,4.0,5.0,81,0.00,,,0.00,0,Wunderground v.1.15,2013-05-18 04:18:00,
2013-05-18 00:24:00,76.1,70.2,30.11,SE,136,5.0,6.0,82,0.00,,,0.00,0,Wunderground v.1.15,2013-05-18 04:24:00,
2013-05-18 00:30:00,76.1,70.2,30.12,ESE,117,5.0,6.0,82,0.00,,,0.00,0,Wunderground v.1.15,2013-05-18 04:30:00,
2013-05-18 00:36:00,76.1,70.2,30.12,SE,142,5.0,6.0,82,0.00,,,0.00,0,Wunderground v.1.15,2013-05-18 04:36:00,
2013-05-18 00:42:00,76.0,70.1,30.12,East,98,4.0,5.0,82,0.00,,,0.00,0,Wunderground v.1.15,2013-05-18 04:42:00,
2013-05-18 00:48:00,76.0,70.1,30.12,ESE,118,4.0,7.0,82,0.00,,,0.00,0,Wunderground v.1.15,2013-05-18 04:48:00,
2013-05-18 00:54:00,76.1,70.6,30.11,ESE,108,5.0,7.0,83,0.00,,,0.00,0,Wunderground v.1.15,2013-05-18 04:54:00,
2013-05-18 01:00:00,76.0,70.5,30.11,ESE,122,4.0,5.0,83,0.00,,,0.00,0,Wunderground v.1.15,2013-05-18 05:00:00,
2013-05-18 01:06:00,76.0,70.5,30.11,ESE,107,4.0,8.0,83,0.00,,,0.00,0,Wunderground v.1.15,2013-05-18 05:06:00,
2013-05-18 01:12:00,75.9,70.4,30.11,SE,128,4.0,6.0,83,0.00,,,0.00,0,Wunderground v.1.15,2013-05-18 05:12:00,
2013-05-18 01:18:00,75.9,70.7,30.11,ESE,107,4.0,6.0,84,0.00,,,0.00,0,Wunderground v.1.15,2013-05-18 05:18:00,
2013-05-18 01:24:00,75.9,70.7,30.10,SE,134,3.0,5.0,84,0.00,,,0.00,0,Wunderground v.1.15,2013-05-18 05:24:00,
2013-05-18 01:30:00,75.9,71.1,30.10,ESE,111,4.0,4.0,85,0.00,,,0.00,0,Wunderground v.1.15,2013-05-18 05:30:00,
2013-05-18 01:36:00,75.9,71.1,30.10,ESE,123,4.0,5.0,85,0.00,,,0.00,0,Wunderground v.1.15,2013-05-18 05:36:00,
2013-05-18 01:42:00,76.0,71.5,30.10,ESE,121,4.0,4.0,86,0.00,,,0.00,0,Wunderground v.1.15,2013-05-18 05:42:00,
2013-05-18 01:48:00,75.9,71.4,30.10,SE,131,4.0,4.0,86,0.00,,,0.00,0,Wunderground v.1.15,2013-05-18 05:48:00,
2013-05-18 01:54:00,75.9,71.4,30.10,SE,125,3.0,5.0,86,0.00,,,0.00,0,Wunderground v.1.15,2013-05-18 05:54:00,
2013-05-18 02:00:00,75.9,71.4,30.10,SE,130,3.0,7.0,86,0.00,,,0.00,0,Wunderground v.1.15,2013-05-18 06:00:00,
2013-05-18 02:06:00,75.7,70.2,30.10,SE,141,4.0,7.0,83,0.00,,,0.00,0,Wunderground v.1.15,2013-05-18 06:06:00,
2013-05-18 02:12:00,75.7,70.2,30.10,ESE,117,3.0,4.0,83,0.00,,,0.00,0,Wunderground v.1.15,2013-05-18 06:12:00,
2013-05-18 02:18:00,75.7,69.8,30.09,ESE,117,2.0,4.0,82,0.00,,,0.00,0,Wunderground v.1.15,2013-05-18 06:18:00,
2013-05-18 02:24:00,75.6,69.7,30.09,ESE,117,1.0,2.0,82,0.00,,,0.00,0,Wunderground v.1.15,2013-05-18 06:24:00,
2013-05-18 02:30:00,75.6,70.1,30.09,ESE,117,2.0,2.0,83,0.00,,,0.00,0,Wunderground v.1.15,2013-05-18 06:30:00,
2013-05-18 02:36:00,75.5,70.0,30.09,ESE,117,1.0,2.0,83,0.00,,,0.00,0,Wunderground v.1.15,2013-05-18 06:36:00,
2013-05-18 02:42:00,75.3,69.8,30.09,ESE,117,0.0,0.0,83,0.00,,,0.00,0,Wunderground v.1.15,2013-05-18 06:42:00,
2013-05-18 02:48:00,75.2,69.7,30.09,ESE,117,0.0,0.0,83,0.00,,,0.00,0,Wunderground v.1.15,2013-05-18 06:48:00,
2013-05-18 02:54:00,75.0,69.5,30.09,ESE,117,0.0,3.0,83,0.00,,,0.00,0,Wunderground v.1.15,2013-05-18 06:54:00,
2013-05-18 03:00:00,74.9,69.4,30.09,ESE,117,1.0,1.0,83,0.00,,,0.00,0,Wunderground v.1.15,2013-05-18 07:00:00,
2013-05-18 03:06:00,74.8,69.3,30.09,ESE,117,0.0,1.0,83,0.00,,,0.00,0,Wunderground v.1.15,2013-05-18 07:06:00,
2013-05-18 03:12:00,74.6,69.1,30.09,ESE,117,0.0,0.0,83,0.00,,,0.00,0,Wunderground v.1.15,2013-05-18 07:12:00,
2013-05-18 03:18:00,74.5,69.3,30.09,ESE,117,0.0,0.0,84,0.00,,,0.00,0,Wunderground v.1.15,2013-05-18 07:18:00,
2013-05-18 03:24:00,74.3,69.1,30.09,ESE,117,0.0,0.0,84,0.00,,,0.00,0,Wunderground v.1.15,2013-05-18 07:24:00,
2013-05-18 03:30:00,74.2,69.1,30.09,ESE,117,0.0,0.0,84,0.00,,,0.00,0,Wunderground v.1.15,2013-05-18 07:30:00,
2013-05-18 03:36:00,74.1,69.3,30.09,ESE,117,0.0,0.0,85,0.00,,,0.00,0,Wunderground v.1.15,2013-05-18 07:36:00,
2013-05-18 03:42:00,74.0,69.2,30.09,ESE,117,0.0,0.0,85,0.00,,,0.00,0,Wunderground v.1.15,2013-05-18 07:42:00,
2013-05-18 03:48:00,73.8,69.0,30.09,ESE,117,0.0,0.0,85,0.00,,,0.00,0,Wunderground v.1.15,2013-05-18 07:48:00,
2013-05-18 03:54:00,73.7,68.9,30.08,ESE,117,0.0,0.0,85,0.00,,,0.00,0,Wunderground v.1.15,2013-05-18 07:54:00,
2013-05-18 04:00:00,73.5,68.7,30.08,ESE,117,0.0,0.0,85,0.00,,,0.00,0,Wunderground v.1.15,2013-05-18 08:00:00,
2013-05-18 04:06:00,73.4,68.6,30.08,ESE,117,0.0,0.0,85,0.00,,,0.00,0,Wunderground v.1.15,2013-05-18 08:06:00,
2013-05-18 04:12:00,73.3,68.5,30.08,ESE,117,0.0,0.0,85,0.00,,,0.00,0,Wunderground v.1.15,2013-05-18 08:12:00,
2013-05-18 04:18:00,73.1,68.7,30.08,ESE,117,0.0,0.0,86,0.00,,,0.00,0,Wunderground v.1.15,2013-05-18 08:18:00,
2013-05-18 04:24:00,73.0,68.9,30.08,ESE,117,0.0,0.0,87,0.00,,,0.00,0,Wunderground v.1.15,2013-05-18 08:24:00,
2013-05-18 04:30:00,72.9,68.8,30.08,ESE,117,0.0,0.0,87,0.00,,,0.00,0,Wunderground v.1.15,2013-05-18 08:30:00,
2013-05-18 04:36:00,72.8,68.7,30.08,ESE,117,0.0,0.0,87,0.00,,,0.00,0,Wunderground v.1.15,2013-05-18 08:36:00,
2013-05-18 04:42:00,72.7,68.6,30.08,ESE,117,0.0,0.0,87,0.00,,,0.00,0,Wunderground v.1.15,2013-05-18 08:42:00,
2013-05-18 04:48:00,72.6,68.5,30.08,ESE,117,0.0,0.0,87,0.00,,,0.00,0,Wunderground v.1.15,2013-05-18 08:48:00,
2013-05-18 04:54:00,72.5,68.7,30.08,ESE,117,0.0,0.0,88,0.00,,,0.00,0,Wunderground v.1.15,2013-05-18 08:54:00,
2013-05-18 05:00:00,72.4,68.6,30.08,ESE,117,0.0,0.0,88,0.00,,,0.00,0,Wunderground v.1.15,2013-05-18 09:00:00,
2013-05-18 05:06:00,72.4,68.6,30.08,ESE,117,0.0,0.0,88,0.00,,,0.00,0,Wunderground v.1.15,2013-05-18 09:06:00,
2013-05-18 05:12:00,72.3,68.5,30.08,ESE,117,0.0,0.0,88,0.00,,,0.00,0,Wunderground v.1.15,2013-05-18 09:12:00,
2013-05-18 05:18:00,72.3,68.9,30.09,ESE,117,0.0,0.0,89,0.00,,,0.00,0,Wunderground v.1.15,2013-05-18 09:18:00,
2013-05-18 05:24:00,72.2,68.8,30.09,ESE,117,0.0,0.0,89,0.00,,,0.00,0,Wunderground v.1.15,2013-05-18 09:24:00,
2013-05-18 05:30:00,72.2,68.8,30.09,ESE,117,0.0,0.0,89,0.00,,,0.00,0,Wunderground v.1.15,2013-05-18 09:30:00,
2013-05-18 05:36:00,72.2,68.8,30.09,ESE,117,0.0,0.0,89,0.00,,,0.00,0,Wunderground v.1.15,2013-05-18 09:36:00,
2013-05-18 05:42:00,72.1,68.7,30.09,ESE,117,0.0,0.0,89,0.00,,,0.00,0,Wunderground v.1.15,2013-05-18 09:42:00,
2013-05-18 05:48:00,71.9,68.5,30.09,ESE,117,0.0,0.0,89,0.00,,,0.00,0,Wunderground v.1.15,2013-05-18 09:48:00,
2013-05-18 05:54:00,71.8,68.4,30.09,ESE,117,0.0,0.0,89,0.00,,,0.00,0,Wunderground v.1.15,2013-05-18 09:54:00,
2013-05-18 06:00:00,71.7,68.3,30.09,ESE,117,0.0,0.0,89,0.00,,,0.00,0,Wunderground v.1.15,2013-05-18 10:00:00,
2013-05-18 06:06:00,71.6,68.2,30.09,ESE,117,0.0,0.0,89,0.00,,,0.00,0,Wunderground v.1.15,2013-05-18 10:06:00,
2013-05-18 06:12:00,71.5,68.4,30.09,ESE,117,0.0,0.0,90,0.00,,,0.00,0,Wunderground v.1.15,2013-05-18 10:12:00,
2013-05-18 06:18:00,71.4,68.3,30.10,ESE,117,0.0,0.0,90,0.00,,,0.00,0,Wunderground v.1.15,2013-05-18 10:18:00,
2013-05-18 06:24:00,71.2,68.1,30.10,ESE,117,0.0,0.0,90,0.00,,,0.00,0,Wunderground v.1.15,2013-05-18 10:24:00,
2013-05-18 06:30:00,71.1,68.0,30.10,ESE,117,0.0,0.0,90,0.00,,,0.00,0,Wunderground v.1.15,2013-05-18 10:30:00,
2013-05-18 06:36:00,70.9,67.8,30.10,ESE,117,0.0,0.0,90,0.00,,,0.00,5,Wunderground v.1.15,2013-05-18 10:36:00,
2013-05-18 06:42:00,70.8,67.7,30.10,ESE,117,0.0,0.0,90,0.00,,,0.00,9,Wunderground v.1.15,2013-05-18 10:42:00,
2013-05-18 06:48:00,70.8,68.0,30.10,ENE,76,0.0,0.0,91,0.00,,,0.00,14,Wunderground v.1.15,2013-05-18 10:48:00,
2013-05-18 06:54:00,70.7,67.9,30.10,NNE,33,0.0,0.0,91,0.00,,,0.00,25,Wunderground v.1.15,2013-05-18 10:54:00,
2013-05-18 07:00:00,70.7,67.9,30.11,NNE,33,0.0,0.0,91,0.00,,,0.00,33,Wunderground v.1.15,2013-05-18 11:00:00,
2013-05-18 07:06:00,70.7,67.9,30.11,NNE,33,0.0,0.0,91,0.00,,,0.00,44,Wunderground v.1.15,2013-05-18 11:06:00,
2013-05-18 07:12:00,70.8,68.4,30.11,NNE,33,0.0,0.0,92,0.00,,,0.00,56,Wunderground v.1.15,2013-05-18 11:12:00,
2013-05-18 07:18:00,70.9,68.5,30.11,NNE,33,0.0,0.0,92,0.00,,,0.00,74,Wunderground v.1.15,2013-05-18 11:18:00,
2013-05-18 07:24:00,71.3,69.2,30.11,NNE,33,0.0,0.0,93,0.00,,,0.00,90,Wunderground v.1.15,2013-05-18 11:24:00,
2013-05-18 07:30:00,71.7,69.6,30.11,NNE,33,0.0,0.0,93,0.00,,,0.00,102,Wunderground v.1.15,2013-05-18 11:30:00,
2013-05-18 07:36:00,72.2,70.4,30.12,NNE,33,0.0,0.0,94,0.00,,,0.00,114,Wunderground v.1.15,2013-05-18 11:36:00,
2013-05-18 07:42:00,72.9,71.1,30.12,NNE,33,0.0,0.0,94,0.00,,,0.00,137,Wunderground v.1.15,2013-05-18 11:42:00,
2013-05-18 07:48:00,73.5,71.4,30.12,NNE,33,0.0,0.0,93,0.00,,,0.00,149,Wunderground v.1.15,2013-05-18 11:48:00,
2013-05-18 07:54:00,74.3,71.8,30.12,NNE,33,0.0,0.0,92,0.00,,,0.00,86,Wunderground v.1.15,2013-05-18 11:54:00,
2013-05-18 08:00:00,75.0,71.9,30.13,NNE,33,0.0,0.0,90,0.00,,,0.00,213,Wunderground v.1.15,2013-05-18 12:00:00,
2013-05-18 08:06:00,75.8,72.0,30.13,NE,46,0.0,0.0,88,0.00,,,0.00,221,Wunderground v.1.15,2013-05-18 12:06:00,
2013-05-18 08:12:00,76.4,71.9,30.13,NE,46,0.0,2.0,86,0.00,,,0.00,243,Wunderground v.1.15,2013-05-18 12:12:00,
2013-05-18 08:18:00,77.0,72.1,30.13,NE,46,0.0,2.0,85,0.00,,,0.00,257,Wunderground v.1.15,2013-05-18 12:18:00,
2013-05-18 08:24:00,77.5,72.3,30.13,NE,46,0.0,0.0,84,0.00,,,0.00,287,Wunderground v.1.15,2013-05-18 12:24:00,
2013-05-18 08:30:00,77.9,72.3,30.13,NE,46,0.0,0.0,83,0.00,,,0.00,308,Wunderground v.1.15,2013-05-18 12:30:00,
2013-05-18 08:36:00,78.3,72.3,30.13,NE,46,0.0,0.0,82,0.00,,,0.00,327,Wunderground v.1.15,2013-05-18 12:36:00,
2013-05-18 08:42:00,78.5,72.2,30.13,NE,50,1.0,2.0,81,0.00,,,0.00,350,Wunderground v.1.15,2013-05-18 12:42:00,
2013-05-18 08:48:00,78.8,72.5,30.13,NE,50,1.0,3.0,81,0.00,,,0.00,373,Wunderground v.1.15,2013-05-18 12:48:00,
2013-05-18 08:54:00,79.3,73.0,30.13,NE,55,1.0,3.0,81,0.00,,,0.00,404,Wunderground v.1.15,2013-05-18 12:54:00,
2013-05-18 09:00:00,79.4,72.3,30.13,ENE,61,1.0,1.0,79,0.00,,,0.00,466,Wunderground v.1.15,2013-05-18 13:00:00,
2013-05-18 09:06:00,79.6,72.5,30.13,East,89,2.0,4.0,79,0.00,,,0.00,475,Wunderground v.1.15,2013-05-18 13:06:00,
2013-05-18 09:12:00,80.0,72.9,30.13,East,89,1.0,1.0,79,0.00,,,0.00,496,Wunderground v.1.15,2013-05-18 13:12:00,
2013-05-18 09:18:00,80.4,72.9,30.13,East,90,0.0,1.0,78,0.00,,,0.00,519,Wunderground v.1.15,2013-05-18 13:18:00,
2013-05-18 09:24:00,80.7,72.0,30.13,SSW,192,1.0,5.0,75,0.00,,,0.00,534,Wunderground v.1.15,2013-05-18 13:24:00,
2013-05-18 09:30:00,81.1,72.4,30.13,South,191,2.0,2.0,75,0.00,,,0.00,550,Wunderground v.1.15,2013-05-18 13:30:00,
2013-05-18 09:36:00,81.5,73.2,30.13,South,189,1.0,2.0,76,0.00,,,0.00,606,Wunderground v.1.15,2013-05-18 13:36:00,
2013-05-18 09:42:00,81.9,72.8,30.13,SE,127,0.0,3.0,74,0.00,,,0.00,619,Wunderground v.1.15,2013-05-18 13:42:00,
2013-05-18 09:48:00,81.5,72.8,30.13,East,91,2.0,4.0,75,0.00,,,0.00,403,Wunderground v.1.15,2013-05-18 13:48:00,
2013-05-18 09:54:00,81.2,72.9,30.13,ESE,110,3.0,6.0,76,0.00,,,0.00,250,Wunderground v.1.15,2013-05-18 13:54:00,
2013-05-18 10:00:00,81.0,72.7,30.13,ESE,107,3.0,5.0,76,0.00,,,0.00,682,Wunderground v.1.15,2013-05-18 14:00:00,
2013-05-18 10:06:00,80.8,72.5,30.13,ENE,73,3.0,6.0,76,0.00,,,0.00,819,Wunderground v.1.15,2013-05-18 14:06:00,
2013-05-18 10:12:00,81.0,72.3,30.13,ENE,74,4.0,7.0,75,0.00,,,0.00,851,Wunderground v.1.15,2013-05-18 14:12:00,
2013-05-18 10:18:00,81.2,72.9,30.13,ENE,77,4.0,7.0,76,0.00,,,0.00,311,Wunderground v.1.15,2013-05-18 14:18:00,
2013-05-18 10:24:00,80.9,73.0,30.14,East,81,4.0,7.0,77,0.00,,,0.00,838,Wunderground v.1.15,2013-05-18 14:24:00,
2013-05-18 10:30:00,80.9,73.0,30.14,ENE,58,4.0,5.0,77,0.00,,,0.00,831,Wunderground v.1.15,2013-05-18 14:30:00,
2013-05-18 10:36:00,81.5,73.6,30.14,NE,39,4.0,8.0,77,0.00,,,0.00,719,Wunderground v.1.15,2013-05-18 14:36:00,
2013-05-18 10:42:00,80.9,73.4,30.14,ENE,78,6.0,9.0,78,0.00,,,0.00,838,Wunderground v.1.15,2013-05-18 14:42:00,
2013-05-18 10:48:00,80.7,73.6,30.14,ENE,74,6.0,9.0,79,0.00,,,0.00,877,Wunderground v.1.15,2013-05-18 14:48:00,
2013-05-18 10:54:00,80.7,73.6,30.14,East,86,5.0,10.0,79,0.00,,,0.00,863,Wunderground v.1.15,2013-05-18 14:54:00,
2013-05-18 11:00:00,80.8,73.7,30.14,ENE,73,5.0,5.0,79,0.00,,,0.00,831,Wunderground v.1.15,2013-05-18 15:00:00,
2013-05-18 11:06:00,81.1,73.2,30.14,East,89,5.0,6.0,77,0.00,,,0.00,847,Wunderground v.1.15,2013-05-18 15:06:00,
2013-05-18 11:12:00,80.8,72.9,30.13,ENE,69,5.0,7.0,77,0.00,,,0.00,865,Wunderground v.1.15,2013-05-18 15:12:00,
2013-05-18 11:18:00,81.2,72.9,30.14,East,82,5.0,7.0,76,0.00,,,0.00,868,Wunderground v.1.15,2013-05-18 15:18:00,
2013-05-18 11:24:00,81.6,73.7,30.14,East,98,5.0,5.0,77,0.00,,,0.00,888,Wunderground v.1.15,2013-05-18 15:24:00,
2013-05-18 11:30:00,81.5,73.2,30.14,ENE,69,5.0,10.0,76,0.00,,,0.00,925,Wunderground v.1.15,2013-05-18 15:30:00,
2013-05-18 11:36:00,82.1,73.4,30.14,East,80,5.0,10.0,75,0.00,,,0.00,937,Wunderground v.1.15,2013-05-18 15:36:00,
2013-05-18 11:42:00,81.6,73.3,30.14,NE,49,5.0,7.0,76,0.00,,,0.00,979,Wunderground v.1.15,2013-05-18 15:42:00,
2013-05-18 11:48:00,81.9,73.6,30.13,ENE,66,5.0,7.0,76,0.00,,,0.00,1055,Wunderground v.1.15,2013-05-18 15:48:00,
2013-05-18 11:54:00,81.7,73.4,30.14,East,82,5.0,7.0,76,0.00,,,0.00,603,Wunderground v.1.15,2013-05-18 15:54:00,
2013-05-18 12:00:00,82.3,74.0,30.13,East,90,6.0,6.0,76,0.00,,,0.00,1158,Wunderground v.1.15,2013-05-18 16:00:00,
2013-05-18 12:06:00,82.5,74.2,30.13,East,81,5.0,6.0,76,0.00,,,0.00,1111,Wunderground v.1.15,2013-05-18 16:06:00,
2013-05-18 12:12:00,82.5,73.8,30.13,ENE,65,5.0,6.0,75,0.00,,,0.00,1067,Wunderground v.1.15,2013-05-18 16:12:00,
2013-05-18 12:18:00,82.6,74.3,30.13,ENE,71,4.0,6.0,76,0.00,,,0.00,1107,Wunderground v.1.15,2013-05-18 16:18:00,
2013-05-18 12:24:00,82.6,73.5,30.13,ENE,65,5.0,5.0,74,0.00,,,0.00,1063,Wunderground v.1.15,2013-05-18 16:24:00,
2013-05-18 12:30:00,82.3,73.2,30.13,East,88,6.0,7.0,74,0.00,,,0.00,974,Wunderground v.1.15,2013-05-18 16:30:00,
2013-05-18 12:36:00,82.0,73.7,30.13,ESE,108,6.0,7.0,76,0.00,,,0.00,1113,Wunderground v.1.15,2013-05-18 16:36:00,
2013-05-18 12:42:00,81.8,73.5,30.12,East,87,6.0,9.0,76,0.00,,,0.00,529,Wunderground v.1.15,2013-05-18 16:42:00,
2013-05-18 12:48:00,81.5,73.2,30.12,ENE,63,6.0,9.0,76,0.00,,,0.00,603,Wunderground v.1.15,2013-05-18 16:48:00,
2013-05-18 12:54:00,81.7,73.4,30.12,ENE,72,6.0,7.0,76,0.00,,,0.00,1028,Wunderground v.1.15,2013-05-18 16:54:00,
2013-05-18 13:00:00,81.9,74.0,30.12,ENE,77,6.0,6.0,77,0.00,,,0.00,1032,Wunderground v.1.15,2013-05-18 17:00:00,
2013-05-18 13:06:00,82.2,73.9,30.12,SE,128,6.0,6.0,76,0.00,,,0.00,1034,Wunderground v.1.15,2013-05-18 17:06:00,
2013-05-18 13:12:00,82.6,73.9,30.11,NE,43,5.0,5.0,75,0.00,,,0.00,1085,Wunderground v.1.15,2013-05-18 17:12:00,
2013-05-18 13:18:00,83.0,73.4,30.11,East,95,5.0,6.0,73,0.00,,,0.00,1032,Wunderground v.1.15,2013-05-18 17:18:00,
2013-05-18 13:24:00,83.1,73.5,30.11,East,91,6.0,6.0,73,0.00,,,0.00,1081,Wunderground v.1.15,2013-05-18 17:24:00,
2013-05-18 13:30:00,83.2,73.6,30.11,East,92,5.0,9.0,73,0.00,,,0.00,1097,Wunderground v.1.15,2013-05-18 17:30:00,
2013-05-18 13:36:00,83.0,73.4,30.11,ENE,73,6.0,9.0,73,0.00,,,0.00,970,Wunderground v.1.15,2013-05-18 17:36:00,
2013-05-18 13:42:00,83.1,74.4,30.11,ENE,76,6.0,7.0,75,0.00,,,0.00,1093,Wunderground v.1.15,2013-05-18 17:42:00,
2013-05-18 13:48:00,83.3,74.5,30.11,ENE,74,5.0,7.0,75,0.00,,,0.00,1088,Wunderground v.1.15,2013-05-18 17:48:00,
2013-05-18 13:54:00,83.2,74.4,30.11,ESE,105,6.0,10.0,75,0.00,,,0.00,1014,Wunderground v.1.15,2013-05-18 17:54:00,
2013-05-18 14:00:00,82.9,74.2,30.11,ENE,65,6.0,9.0,75,0.00,,,0.00,1044,Wunderground v.1.15,2013-05-18 18:00:00,
2013-05-18 14:06:00,82.9,74.6,30.11,ENE,64,7.0,10.0,76,0.00,,,0.00,988,Wunderground v.1.15,2013-05-18 18:06:00,
2013-05-18 14:12:00,82.4,73.7,30.10,East,101,6.0,7.0,75,0.00,,,0.00,979,Wunderground v.1.15,2013-05-18 18:12:00,
2013-05-18 14:18:00,82.7,74.4,30.10,ENE,67,6.0,10.0,76,0.00,,,0.00,969,Wunderground v.1.15,2013-05-18 18:18:00,
2013-05-18 14:24:00,82.5,74.2,30.10,ENE,74,6.0,11.0,76,0.00,,,0.00,970,Wunderground v.1.15,2013-05-18 18:24:00,
2013-05-18 14:30:00,82.9,74.2,30.10,East,94,6.0,6.0,75,0.00,,,0.00,953,Wunderground v.1.15,2013-05-18 18:30:00,
2013-05-18 14:36:00,82.5,73.4,30.10,ESE,119,6.0,8.0,74,0.00,,,0.00,954,Wunderground v.1.15,2013-05-18 18:36:00,
2013-05-18 14:42:00,82.4,74.1,30.10,ESE,123,7.0,11.0,76,0.00,,,0.00,947,Wunderground v.1.15,2013-05-18 18:42:00,
2013-05-18 14:48:00,82.4,74.8,30.10,East,84,7.0,11.0,78,0.00,,,0.00,933,Wunderground v.1.15,2013-05-18 18:48:00,
2013-05-18 14:54:00,82.6,74.3,30.10,SE,132,7.0,7.0,76,0.00,,,0.00,925,Wunderground v.1.15,2013-05-18 18:54:00,
2013-05-18 15:00:00,82.7,74.8,30.09,East,91,6.0,7.0,77,0.00,,,0.00,921,Wunderground v.1.15,2013-05-18 19:00:00,
2013-05-18 15:06:00,82.5,74.6,30.10,ESE,111,6.0,7.0,77,0.00,,,0.00,911,Wunderground v.1.15,2013-05-18 19:06:00,
2013-05-18 15:12:00,82.0,74.5,30.09,SE,127,7.0,8.0,78,0.00,,,0.00,891,Wunderground v.1.15,2013-05-18 19:12:00,
2013-05-18 15:18:00,82.0,74.8,30.09,ESE,106,7.0,11.0,79,0.00,,,0.00,882,Wunderground v.1.15,2013-05-18 19:18:00,
2013-05-18 15:24:00,82.1,74.2,30.09,SE,144,6.0,7.0,77,0.00,,,0.00,875,Wunderground v.1.15,2013-05-18 19:24:00,
2013-05-18 15:30:00,82.1,74.2,30.09,SE,135,7.0,8.0,77,0.00,,,0.00,863,Wunderground v.1.15,2013-05-18 19:30:00,
2013-05-18 15:36:00,81.9,74.0,30.08,ESE,103,8.0,8.0,77,0.00,,,0.00,847,Wunderground v.1.15,2013-05-18 19:36:00,
2013-05-18 15:42:00,82.1,74.2,30.08,SE,127,7.0,8.0,77,0.00,,,0.00,838,Wunderground v.1.15,2013-05-18 19:42:00,
2013-05-18 15:48:00,82.9,73.8,30.08,East,98,6.0,8.0,74,0.00,,,0.00,821,Wunderground v.1.15,2013-05-18 19:48:00,
2013-05-18 15:54:00,82.7,73.6,30.08,ESE,102,7.0,8.0,74,0.00,,,0.00,810,Wunderground v.1.15,2013-05-18 19:54:00,
2013-05-18 16:00:00,82.5,73.4,30.08,SSE,163,8.0,8.0,74,0.00,,,0.00,793,Wunderground v.1.15,2013-05-18 20:00:00,
2013-05-18 16:06:00,82.6,73.9,30.08,SE,131,7.0,11.0,75,0.00,,,0.00,800,Wunderground v.1.15,2013-05-18 20:06:00,
2013-05-18 16:12:00,82.3,73.6,30.08,SE,130,7.0,10.0,75,0.00,,,0.00,768,Wunderground v.1.15,2013-05-18 20:12:00,
2013-05-18 16:18:00,82.1,73.8,30.07,ESE,108,8.0,12.0,76,0.00,,,0.00,744,Wunderground v.1.15,2013-05-18 20:18:00,
2013-05-18 16:24:00,82.0,73.3,30.07,East,101,9.0,13.0,75,0.00,,,0.00,738,Wunderground v.1.15,2013-05-18 20:24:00,
2013-05-18 16:30:00,82.0,72.9,30.07,ESE,110,9.0,9.0,74,0.00,,,0.00,717,Wunderground v.1.15,2013-05-18 20:30:00,
2013-05-18 16:36:00,82.1,73.4,30.07,ESE,112,8.0,10.0,75,0.00,,,0.00,691,Wunderground v.1.15,2013-05-18 20:36:00,
2013-05-18 16:42:00,82.5,73.4,30.07,ESE,105,6.0,12.0,74,0.00,,,0.00,628,Wunderground v.1.15,2013-05-18 20:42:00,
2013-05-18 16:48:00,82.2,73.5,30.07,ESE,116,7.0,13.0,75,0.00,,,0.00,348,Wunderground v.1.15,2013-05-18 20:48:00,
2013-05-18 16:54:00,81.6,72.9,30.07,ESE,104,8.0,8.0,75,0.00,,,0.00,473,Wunderground v.1.15,2013-05-18 20:54:00,
2013-05-18 17:00:00,81.4,73.1,30.07,East,91,9.0,9.0,76,0.00,,,0.00,506,Wunderground v.1.15,2013-05-18 21:00:00,
2013-05-18 17:06:00,81.2,73.3,30.07,SE,124,10.0,15.0,77,0.00,,,0.00,411,Wunderground v.1.15,2013-05-18 21:06:00,
2013-05-18 17:12:00,81.1,72.8,30.07,East,96,9.0,10.0,76,0.00,,,0.00,596,Wunderground v.1.15,2013-05-18 21:12:00,
2013-05-18 17:18:00,81.2,73.3,30.07,SE,137,9.0,10.0,77,0.00,,,0.00,529,Wunderground v.1.15,2013-05-18 21:18:00,
2013-05-18 17:24:00,81.1,73.2,30.07,East,101,8.0,12.0,77,0.00,,,0.00,578,Wunderground v.1.15,2013-05-18 21:24:00,
2013-05-18 17:30:00,81.2,72.9,30.07,SSE,150,8.0,9.0,76,0.00,,,0.00,548,Wunderground v.1.15,2013-05-18 21:30:00,
2013-05-18 17:36:00,81.1,72.8,30.07,ESE,117,9.0,10.0,76,0.00,,,0.00,515,Wunderground v.1.15,2013-05-18 21:36:00,
2013-05-18 17:42:00,81.1,72.8,30.07,ESE,107,8.0,8.0,76,0.00,,,0.00,223,Wunderground v.1.15,2013-05-18 21:42:00,
2013-05-18 17:48:00,81.0,72.3,30.07,ESE,123,8.0,9.0,75,0.00,,,0.00,408,Wunderground v.1.15,2013-05-18 21:48:00,
2013-05-18 17:54:00,81.0,73.1,30.06,SE,127,7.0,10.0,77,0.00,,,0.00,336,Wunderground v.1.15,2013-05-18 21:54:00,
2013-05-18 18:00:00,80.7,73.2,30.07,SE,126,8.0,8.0,78,0.00,,,0.00,399,Wunderground v.1.15,2013-05-18 22:00:00,
2013-05-18 18:06:00,80.6,73.1,30.07,SE,130,8.0,11.0,78,0.00,,,0.00,364,Wunderground v.1.15,2013-05-18 22:06:00,
2013-05-18 18:12:00,80.3,73.2,30.07,East,87,9.0,9.0,79,0.00,,,0.00,390,Wunderground v.1.15,2013-05-18 22:12:00,
2013-05-18 18:18:00,80.3,73.2,30.07,East,101,9.0,13.0,79,0.00,,,0.00,352,Wunderground v.1.15,2013-05-18 22:18:00,
2013-05-18 18:24:00,80.0,72.9,30.07,East,101,8.0,9.0,79,0.00,,,0.00,123,Wunderground v.1.15,2013-05-18 22:24:00,
2013-05-18 18:30:00,79.8,72.3,30.06,SSE,151,7.0,11.0,78,0.00,,,0.00,288,Wunderground v.1.15,2013-05-18 22:30:00,
2013-05-18 18:36:00,79.7,72.6,30.07,SE,126,8.0,11.0,79,0.00,,,0.00,134,Wunderground v.1.15,2013-05-18 22:36:00,
2013-05-18 18:42:00,79.6,72.9,30.07,SE,136,7.0,8.0,80,0.00,,,0.00,113,Wunderground v.1.15,2013-05-18 22:42:00,
2013-05-18 18:48:00,79.5,72.8,30.07,ESE,105,7.0,10.0,80,0.00,,,0.00,232,Wunderground v.1.15,2013-05-18 22:48:00,
2013-05-18 18:54:00,79.4,72.3,30.07,SE,144,7.0,11.0,79,0.00,,,0.00,202,Wunderground v.1.15,2013-05-18 22:54:00,
2013-05-18 19:00:00,79.4,72.7,30.07,SSE,155,8.0,8.0,80,0.00,,,0.00,179,Wunderground v.1.15,2013-05-18 23:00:00,
2013-05-18 19:06:00,79.4,72.7,30.07,ESE,120,8.0,9.0,80,0.00,,,0.00,130,Wunderground v.1.15,2013-05-18 23:06:00,
2013-05-18 19:12:00,79.2,72.5,30.07,ESE,115,8.0,10.0,80,0.00,,,0.00,134,Wunderground v.1.15,2013-05-18 23:12:00,
2013-05-18 19:18:00,79.0,72.3,30.06,ESE,105,8.0,10.0,80,0.00,,,0.00,109,Wunderground v.1.15,2013-05-18 23:18:00,
2013-05-18 19:24:00,79.0,72.7,30.07,SSE,149,7.0,9.0,81,0.00,,,0.00,62,Wunderground v.1.15,2013-05-18 23:24:00,
2013-05-18 19:30:00,78.9,72.6,30.07,SE,126,6.0,6.0,81,0.00,,,0.00,42,Wunderground v.1.15,2013-05-18 23:30:00,
2013-05-18 19:36:00,78.8,72.5,30.07,ESE,111,5.0,6.0,81,0.00,,,0.00,35,Wunderground v.1.15,2013-05-18 23:36:00,
2013-05-18 19:42:00,78.7,72.4,30.07,East,94,7.0,13.0,81,0.00,,,0.00,26,Wunderground v.1.15,2013-05-18 23:42:00,
2013-05-18 19:48:00,78.5,72.5,30.07,SE,124,8.0,13.0,82,0.00,,,0.00,19,Wunderground v.1.15,2013-05-18 23:48:00,
2013-05-18 19:54:00,78.3,72.3,30.07,ESE,121,7.0,12.0,82,0.00,,,0.00,14,Wunderground v.1.15,2013-05-18 23:54:00,
2013-05-18 20:00:00,78.2,72.3,30.07,ESE,117,8.0,8.0,82,0.00,,,0.00,9,Wunderground v.1.15,2013-05-19 00:00:00,
2013-05-18 20:06:00,78.1,72.2,30.08,ESE,113,7.0,13.0,82,0.00,,,0.00,5,Wunderground v.1.15,2013-05-19 00:06:00,
2013-05-18 20:12:00,78.0,72.1,30.08,SSE,161,8.0,8.0,82,0.00,,,0.00,0,Wunderground v.1.15,2013-05-19 00:12:00,
2013-05-18 20:18:00,78.0,72.4,30.08,SE,144,7.0,11.0,83,0.00,,,0.00,0,Wunderground v.1.15,2013-05-19 00:18:00,
2013-05-18 20:24:00,77.9,72.0,30.08,SE,140,7.0,10.0,82,0.00,,,0.00,0,Wunderground v.1.15,2013-05-19 00:24:00,
2013-05-18 20:30:00,77.9,72.0,30.08,ESE,123,8.0,8.0,82,0.00,,,0.00,0,Wunderground v.1.15,2013-05-19 00:30:00,
2013-05-18 20:36:00,77.8,71.9,30.08,ESE,122,8.0,10.0,82,0.00,,,0.00,0,Wunderground v.1.15,2013-05-19 00:36:00,
2013-05-18 20:42:00,77.9,72.0,30.08,SE,125,8.0,13.0,82,0.00,,,0.00,0,Wunderground v.1.15,2013-05-19 00:42:00,
2013-05-18 20:48:00,77.8,72.2,30.08,ESE,106,8.0,13.0,83,0.00,,,0.00,0,Wunderground v.1.15,2013-05-19 00:48:00,
2013-05-18 20:54:00,77.8,72.2,30.08,ESE,118,7.0,10.0,83,0.00,,,0.00,0,Wunderground v.1.15,2013-05-19 00:54:00,
2013-05-18 21:00:00,77.7,71.8,30.08,SE,146,8.0,10.0,82,0.00,,,0.00,0,Wunderground v.1.15,2013-05-19 01:00:00,
2013-05-18 21:06:00,77.7,71.8,30.08,SE,132,9.0,13.0,82,0.00,,,0.00,0,Wunderground v.1.15,2013-05-19 01:06:00,
2013-05-18 21:12:00,77.6,71.7,30.09,SSE,154,7.0,8.0,82,0.00,,,0.00,0,Wunderground v.1.15,2013-05-19 01:12:00,
2013-05-18 21:18:00,77.6,71.7,30.08,SE,133,7.0,8.0,82,0.00,,,0.00,0,Wunderground v.1.15,2013-05-19 01:18:00,
2013-05-18 21:24:00,77.6,72.0,30.08,SE,138,7.0,11.0,83,0.00,,,0.00,0,Wunderground v.1.15,2013-05-19 01:24:00,
2013-05-18 21:30:00,77.6,72.0,30.09,SE,140,6.0,7.0,83,0.00,,,0.00,0,Wunderground v.1.15,2013-05-19 01:30:00,
2013-05-18 21:36:00,77.6,72.0,30.09,SE,128,6.0,7.0,83,0.00,,,0.00,0,Wunderground v.1.15,2013-05-19 01:36:00,
2013-05-18 21:42:00,77.6,72.0,30.09,SE,131,7.0,9.0,83,0.00,,,0.00,0,Wunderground v.1.15,2013-05-19 01:42:00,
2013-05-18 21:48:00,77.6,72.0,30.09,SE,142,8.0,13.0,83,0.00,,,0.00,0,Wunderground v.1.15,2013-05-19 01:48:00,
2013-05-18 21:54:00,77.6,71.7,30.09,SE,128,7.0,8.0,82,0.00,,,0.00,0,Wunderground v.1.15,2013-05-19 01:54:00,
2013-05-18 22:00:00,77.6,71.7,30.09,SE,142,7.0,8.0,82,0.00,,,0.00,0,Wunderground v.1.15,2013-05-19 02:00:00,
2013-05-18 22:06:00,77.6,71.7,30.09,ESE,121,7.0,12.0,82,0.00,,,0.00,0,Wunderground v.1.15,2013-05-19 02:06:00,
2013-05-18 22:12:00,77.6,71.7,30.09,SE,124,7.0,7.0,82,0.00,,,0.00,0,Wunderground v.1.15,2013-05-19 02:12:00,
2013-05-18 22:18:00,77.6,71.7,30.09,SE,138,7.0,10.0,82,0.00,,,0.00,0,Wunderground v.1.15,2013-05-19 02:18:00,
2013-05-18 22:24:00,77.6,71.7,30.09,SSE,158,8.0,11.0,82,0.00,,,0.00,0,Wunderground v.1.15,2013-05-19 02:24:00,
2013-05-18 22:30:00,77.6,71.7,30.09,SE,132,8.0,8.0,82,0.00,,,0.00,0,Wunderground v.1.15,2013-05-19 02:30:00,
2013-05-18 22:36:00,77.6,71.7,30.09,SE,137,8.0,14.0,82,0.00,,,0.00,0,Wunderground v.1.15,2013-05-19 02:36:00,
2013-05-18 22:42:00,77.6,71.3,30.10,ESE,119,7.0,11.0,81,0.00,,,0.00,0,Wunderground v.1.15,2013-05-19 02:42:00,
2013-05-18 22:48:00,77.6,71.3,30.10,SE,146,6.0,11.0,81,0.00,,,0.00,0,Wunderground v.1.15,2013-05-19 02:48:00,
2013-05-18 22:54:00,77.6,71.3,30.10,SSE,148,7.0,9.0,81,0.00,,,0.00,0,Wunderground v.1.15,2013-05-19 02:54:00,
2013-05-18 23:00:00,77.6,71.3,30.10,East,97,8.0,8.0,81,0.00,,,0.00,0,Wunderground v.1.15,2013-05-19 03:00:00,
2013-05-18 23:06:00,77.6,70.9,30.11,SE,128,6.0,11.0,80,0.00,,,0.00,0,Wunderground v.1.15,2013-05-19 03:06:00,
2013-05-18 23:12:00,77.6,70.9,30.11,South,179,7.0,10.0,80,0.00,,,0.00,0,Wunderground v.1.15,2013-05-19 03:12:00,
2013-05-18 23:18:00,77.6,70.9,30.11,SE,134,8.0,12.0,80,0.00,,,0.00,0,Wunderground v.1.15,2013-05-19 03:18:00,
2013-05-18 23:24:00,77.6,70.9,30.11,ESE,113,6.0,7.0,80,0.00,,,0.00,0,Wunderground v.1.15,2013-05-19 03:24:00,
2013-05-18 23:30:00,77.6,70.9,30.11,SSE,148,6.0,6.0,80,0.00,,,0.00,0,Wunderground v.1.15,2013-05-19 03:30:00,
2013-05-18 23:36:00,77.6,70.9,30.11,SE,144,7.0,9.0,80,0.00,,,0.00,0,Wunderground v.1.15,2013-05-19 03:36:00,
2013-05-18 23:42:00,77.6,71.3,30.10,SE,141,5.0,6.0,81,0.00,,,0.00,0,Wunderground v.1.15,2013-05-19 03:42:00,
2013-05-18 23:48:00,77.6,71.3,30.10,SSE,157,4.0,11.0,81,0.00,,,0.00,0,Wunderground v.1.15,2013-05-19 03:48:00,
2013-05-18 23:54:00,77.6,71.7,30.10,SSE,154,6.0,6.0,82,0.00,,,0.00,0,Wunderground v.1.15,2013-05-19 03:54:00,